sensor_id;sensor_type;location;lat;lon;timestamp;pressure;altitude;pressure_sealevel;temperature;humidity
29839;BME280;18669;53.356;-1.464;2023-02-13T00:01:22;102473.47;;;8.18;100.00
29839;BME280;18669;53.356;-1.464;2023-02-13T00:03:48;102470.78;;;8.15;100.00
29839;BME280;18669;53.356;-1.464;2023-02-13T00:06:14;102463.84;;;8.17;100.00
29839;BME280;18669;53.356;-1.464;2023-02-13T00:08:40;102472.66;;;8.23;100.00
29839;BME280;18669;53.356;-1.464;2023-02-13T00:11:06;102467.34;;;8.18;100.00
29839;BME280;18669;53.356;-1.464;2023-02-13T00:13:33;102467.53;;;8.29;100.00
29839;BME280;18669;53.356;-1.464;2023-02-13T00:16:02;102470.19;;;8.30;100.00
29839;BME280;18669;53.356;-1.464;2023-02-13T00:18:31;102468.19;;;8.17;100.00
29839;BME280;18669;53.356;-1.464;2023-02-13T00:21:10;102466.72;;;8.31;100.00
29839;BME280;18669;53.356;-1.464;2023-02-13T00:23:37;102462.28;;;8.27;100.00
29839;BME280;18669;53.356;-1.464;2023-02-13T00:26:09;102457.97;;;8.32;100.00
29839;BME280;18669;53.356;-1.464;2023-02-13T00:28:35;102451.75;;;8.26;100.00
29839;BME280;18669;53.356;-1.464;2023-02-13T00:31:10;102454.44;;;8.29;100.00
29839;BME280;18669;53.356;-1.464;2023-02-13T00:33:37;102453.53;;;8.27;100.00
29839;BME280;18669;53.356;-1.464;2023-02-13T00:36:19;102456.38;;;8.39;100.00
29839;BME280;18669;53.356;-1.464;2023-02-13T00:38:46;102459.63;;;8.26;100.00
29839;BME280;18669;53.356;-1.464;2023-02-13T00:41:13;102456.09;;;8.24;100.00
29839;BME280;18669;53.356;-1.464;2023-02-13T00:43:41;102456.09;;;8.24;100.00
29839;BME280;18669;53.356;-1.464;2023-02-13T00:46:07;102449.00;;;8.18;100.00
29839;BME280;18669;53.356;-1.464;2023-02-13T00:48:34;102451.69;;;8.21;100.00
29839;BME280;18669;53.356;-1.464;2023-02-13T00:51:01;102448.16;;;8.20;100.00
29839;BME280;18669;53.356;-1.464;2023-02-13T00:53:27;102439.38;;;8.18;100.00
29839;BME280;18669;53.356;-1.464;2023-02-13T00:55:53;102441.44;;;8.35;100.00
29839;BME280;18669;53.356;-1.464;2023-02-13T00:58:20;102448.19;;;8.22;100.00
29839;BME280;18669;53.356;-1.464;2023-02-13T01:00:46;102432.28;;;8.11;100.00
29839;BME280;18669;53.356;-1.464;2023-02-13T01:03:13;102434.94;;;8.14;100.00
29839;BME280;18669;53.356;-1.464;2023-02-13T01:05:39;102431.38;;;8.11;100.00
29839;BME280;18669;53.356;-1.464;2023-02-13T01:08:06;102441.00;;;8.10;100.00
29839;BME280;18669;53.356;-1.464;2023-02-13T01:10:32;102443.50;;;8.05;100.00
29839;BME280;18669;53.356;-1.464;2023-02-13T01:12:58;102429.59;;;8.08;100.00
29839;BME280;18669;53.356;-1.464;2023-02-13T01:15:24;102434.94;;;8.14;100.00
29839;BME280;18669;53.356;-1.464;2023-02-13T01:17:54;102438.69;;;8.27;100.00
29839;BME280;18669;53.356;-1.464;2023-02-13T01:20:22;102435.84;;;8.16;100.00
29839;BME280;18669;53.356;-1.464;2023-02-13T01:22:49;102439.16;;;8.06;100.00
29839;BME280;18669;53.356;-1.464;2023-02-13T01:25:15;102434.00;;;8.09;100.00
29839;BME280;18669;53.356;-1.464;2023-02-13T01:27:41;102440.81;;;8.02;100.00
29839;BME280;18669;53.356;-1.464;2023-02-13T01:30:11;102437.66;;;8.19;100.00
29839;BME280;18669;53.356;-1.464;2023-02-13T01:32:42;102437.66;;;8.19;100.00
29839;BME280;18669;53.356;-1.464;2023-02-13T01:35:09;102450.00;;;8.25;100.00
29839;BME280;18669;53.356;-1.464;2023-02-13T01:37:36;102432.34;;;8.16;100.00
29839;BME280;18669;53.356;-1.464;2023-02-13T01:40:05;102434.06;;;8.15;100.00
29839;BME280;18669;53.356;-1.464;2023-02-13T01:42:33;102437.78;;;8.27;100.00
29839;BME280;18669;53.356;-1.464;2023-02-13T01:45:27;102435.16;;;8.27;100.00
29839;BME280;18669;53.356;-1.464;2023-02-13T01:48:04;102437.06;;;8.34;100.00
29839;BME280;18669;53.356;-1.464;2023-02-13T01:55:27;102427.38;;;8.31;100.00
29839;BME280;18669;53.356;-1.464;2023-02-13T01:58:03;102432.72;;;8.38;100.00
29839;BME280;18669;53.356;-1.464;2023-02-13T02:00:31;102434.25;;;8.25;100.00
29839;BME280;18669;53.356;-1.464;2023-02-13T02:03:03;102421.19;;;8.28;100.00
29839;BME280;18669;53.356;-1.464;2023-02-13T02:05:32;102422.06;;;8.27;100.00
29839;BME280;18669;53.356;-1.464;2023-02-13T02:08:01;102429.00;;;8.23;100.00
29839;BME280;18669;53.356;-1.464;2023-02-13T02:10:29;102415.66;;;8.11;100.00
29839;BME280;18669;53.356;-1.464;2023-02-13T02:15:32;102418.16;;;8.04;100.00
29839;BME280;18669;53.356;-1.464;2023-02-13T02:17:58;102418.19;;;8.06;100.00
29839;BME280;18669;53.356;-1.464;2023-02-13T02:26:04;102416.63;;;8.17;100.00
29839;BME280;18669;53.356;-1.464;2023-02-13T02:37:35;102394.31;;;8.40;100.00
29839;BME280;18669;53.356;-1.464;2023-02-13T02:51:02;102404.63;;;8.29;100.00
29839;BME280;18669;53.356;-1.464;2023-02-13T02:53:42;102407.28;;;8.32;100.00
29839;BME280;18669;53.356;-1.464;2023-02-13T02:56:14;102409.81;;;8.26;100.00
29839;BME280;18669;53.356;-1.464;2023-02-13T03:01:29;102404.44;;;8.18;100.00
29839;BME280;18669;53.356;-1.464;2023-02-13T03:04:35;102398.34;;;8.19;100.00
29839;BME280;18669;53.356;-1.464;2023-02-13T03:07:21;102398.09;;;8.06;100.00
29839;BME280;18669;53.356;-1.464;2023-02-13T03:09:51;102404.31;;;8.12;100.00
29839;BME280;18669;53.356;-1.464;2023-02-13T03:13:01;102386.81;;;8.09;100.00
29839;BME280;18669;53.356;-1.464;2023-02-13T03:15:49;102391.16;;;8.09;100.00
29839;BME280;18669;53.356;-1.464;2023-02-13T03:18:49;102400.78;;;8.10;100.00
29839;BME280;18669;53.356;-1.464;2023-02-13T03:21:49;102389.56;;;8.17;100.00
29839;BME280;18669;53.356;-1.464;2023-02-13T03:30:59;102385.09;;;8.13;100.00
29839;BME280;18669;53.356;-1.464;2023-02-13T03:33:56;102375.59;;;8.18;100.00
29839;BME280;18669;53.356;-1.464;2023-02-13T03:36:29;102376.38;;;8.12;100.00
29839;BME280;18669;53.356;-1.464;2023-02-13T03:39:24;102379.69;;;8.03;100.00
29839;BME280;18669;53.356;-1.464;2023-02-13T03:42:00;102367.69;;;8.16;100.00
29839;BME280;18669;53.356;-1.464;2023-02-13T03:44:33;102374.59;;;8.11;100.00
29839;BME280;18669;53.356;-1.464;2023-02-13T03:47:04;102374.38;;;7.99;100.00
29839;BME280;18669;53.356;-1.464;2023-02-13T03:49:47;102364.75;;;7.99;100.00
29839;BME280;18669;53.356;-1.464;2023-02-13T03:52:52;102370.03;;;8.01;100.00
29839;BME280;18669;53.356;-1.464;2023-02-13T03:55:22;102375.00;;;7.85;100.00
29839;BME280;18669;53.356;-1.464;2023-02-13T03:58:15;102373.41;;;7.94;100.00
29839;BME280;18669;53.356;-1.464;2023-02-13T04:01:04;102376.16;;;8.01;100.00
29839;BME280;18669;53.356;-1.464;2023-02-13T04:03:43;102373.56;;;8.03;100.00
29839;BME280;18669;53.356;-1.464;2023-02-13T04:06:31;102377.91;;;8.01;100.00
29839;BME280;18669;53.356;-1.464;2023-02-13T04:08:59;102374.13;;;7.86;100.00
29839;BME280;18669;53.356;-1.464;2023-02-13T04:11:37;102378.59;;;7.90;100.00
29839;BME280;18669;53.356;-1.464;2023-02-13T04:14:22;102383.03;;;7.96;100.00
29839;BME280;18669;53.356;-1.464;2023-02-13T04:17:01;102386.63;;;8.00;100.00
29839;BME280;18669;53.356;-1.464;2023-02-13T04:19:31;102374.13;;;7.85;100.00
29839;BME280;18669;53.356;-1.464;2023-02-13T04:21:59;102364.50;;;7.85;100.00
29839;BME280;18669;53.356;-1.464;2023-02-13T04:24:26;102366.38;;;7.91;100.00
29839;BME280;18669;53.356;-1.464;2023-02-13T04:26:53;102365.63;;;7.98;100.00
29839;BME280;18669;53.356;-1.464;2023-02-13T04:29:23;102370.84;;;7.98;100.00
29839;BME280;18669;53.356;-1.464;2023-02-13T04:31:50;102368.91;;;7.86;100.00
29839;BME280;18669;53.356;-1.464;2023-02-13T04:34:15;102367.56;;;8.09;100.00
29839;BME280;18669;53.356;-1.464;2023-02-13T04:36:41;102369.06;;;7.94;100.00
29839;BME280;18669;53.356;-1.464;2023-02-13T04:39:08;102369.94;;;7.96;100.00
29839;BME280;18669;53.356;-1.464;2023-02-13T04:41:35;102365.53;;;7.94;100.00
29839;BME280;18669;53.356;-1.464;2023-02-13T04:44:01;102368.22;;;7.97;100.00
29839;BME280;18669;53.356;-1.464;2023-02-13T04:46:27;102371.94;;;8.08;100.00
29839;BME280;18669;53.356;-1.464;2023-02-13T04:48:53;102365.47;;;7.89;100.00
29839;BME280;18669;53.356;-1.464;2023-02-13T04:51:19;102362.78;;;7.86;100.00
29839;BME280;18669;53.356;-1.464;2023-02-13T04:53:45;102365.41;;;7.86;100.00
29839;BME280;18669;53.356;-1.464;2023-02-13T04:56:11;102360.16;;;7.86;100.00
29839;BME280;18669;53.356;-1.464;2023-02-13T04:58:37;102360.13;;;7.84;100.00
29839;BME280;18669;53.356;-1.464;2023-02-13T05:01:10;102360.41;;;8.00;100.00
29839;BME280;18669;53.356;-1.464;2023-02-13T05:03:35;102362.69;;;7.81;100.00
29839;BME280;18669;53.356;-1.464;2023-02-13T05:06:01;102351.25;;;7.76;100.00
29839;BME280;18669;53.356;-1.464;2023-02-13T05:08:27;102356.50;;;7.78;100.00
29839;BME280;18669;53.356;-1.464;2023-02-13T05:10:53;102355.66;;;7.80;100.00
29839;BME280;18669;53.356;-1.464;2023-02-13T05:13:19;102353.75;;;7.71;100.00
29839;BME280;18669;53.356;-1.464;2023-02-13T05:15:47;102360.72;;;7.69;100.00
29839;BME280;18669;53.356;-1.464;2023-02-13T05:18:13;102357.25;;;7.70;100.00
29839;BME280;18669;53.356;-1.464;2023-02-13T05:20:40;102351.94;;;7.67;100.00
29839;BME280;18669;53.356;-1.464;2023-02-13T05:23:13;102362.66;;;7.80;100.00
29839;BME280;18669;53.356;-1.464;2023-02-13T05:25:49;102354.75;;;7.78;100.00
29839;BME280;18669;53.356;-1.464;2023-02-13T05:28:15;102353.00;;;7.77;100.00
29839;BME280;18669;53.356;-1.464;2023-02-13T05:30:59;102339.94;;;7.79;100.00
29839;BME280;18669;53.356;-1.464;2023-02-13T05:33:26;102340.78;;;7.78;100.00
29839;BME280;18669;53.356;-1.464;2023-02-13T05:35:51;102348.09;;;7.96;100.00
29839;BME280;18669;53.356;-1.464;2023-02-13T05:38:17;102340.88;;;7.82;100.00
29839;BME280;18669;53.356;-1.464;2023-02-13T05:40:43;102337.31;;;7.79;100.00
29839;BME280;18669;53.356;-1.464;2023-02-13T05:43:09;102344.91;;;7.65;100.00
29839;BME280;18669;53.356;-1.464;2023-02-13T05:45:35;102333.47;;;7.59;100.00
29839;BME280;18669;53.356;-1.464;2023-02-13T05:48:01;102338.75;;;7.63;100.00
29839;BME280;18669;53.356;-1.464;2023-02-13T05:50:27;102338.81;;;7.66;100.00
29839;BME280;18669;53.356;-1.464;2023-02-13T05:52:53;102346.50;;;7.56;100.00
29839;BME280;18669;53.356;-1.464;2023-02-13T05:55:20;102342.28;;;7.65;100.00
29839;BME280;18669;53.356;-1.464;2023-02-13T05:57:46;102344.78;;;7.58;100.00
29839;BME280;18669;53.356;-1.464;2023-02-13T06:00:12;102335.22;;;7.60;100.00
29839;BME280;18669;53.356;-1.464;2023-02-13T06:02:38;102330.78;;;7.55;100.00
29839;BME280;18669;53.356;-1.464;2023-02-13T06:05:04;102330.72;;;7.53;100.00
29839;BME280;18669;53.356;-1.464;2023-02-13T06:07:30;102335.56;;;7.79;100.00
29839;BME280;18669;53.356;-1.464;2023-02-13T06:09:56;102334.38;;;7.63;100.00
29839;BME280;18669;53.356;-1.464;2023-02-13T06:12:24;102340.66;;;7.71;100.00
29839;BME280;18669;53.356;-1.464;2023-02-13T06:14:50;102338.25;;;7.82;100.00
29839;BME280;18669;53.356;-1.464;2023-02-13T06:17:16;102335.25;;;7.62;100.00
29839;BME280;18669;53.356;-1.464;2023-02-13T06:19:42;102337.84;;;7.60;100.00
29839;BME280;18669;53.356;-1.464;2023-02-13T06:22:08;102339.69;;;7.65;100.00
29839;BME280;18669;53.356;-1.464;2023-02-13T06:24:34;102336.16;;;7.64;100.00
29839;BME280;18669;53.356;-1.464;2023-02-13T06:27:00;102331.81;;;7.65;100.00
29839;BME280;18669;53.356;-1.464;2023-02-13T06:29:25;102330.97;;;7.67;100.00
29839;BME280;18669;53.356;-1.464;2023-02-13T06:31:51;102325.91;;;7.75;100.00
29839;BME280;18669;53.356;-1.464;2023-02-13T06:34:17;102328.47;;;7.72;100.00
29839;BME280;18669;53.356;-1.464;2023-02-13T06:36:43;102330.25;;;7.74;100.00
29839;BME280;18669;53.356;-1.464;2023-02-13T06:39:09;102325.88;;;7.73;100.00
29839;BME280;18669;53.356;-1.464;2023-02-13T06:41:35;102328.78;;;7.90;100.00
29839;BME280;18669;53.356;-1.464;2023-02-13T06:44:01;102323.31;;;7.78;100.00
29839;BME280;18669;53.356;-1.464;2023-02-13T06:46:27;102325.97;;;7.80;100.00
29839;BME280;18669;53.356;-1.464;2023-02-13T06:48:53;102334.69;;;7.79;100.00
29839;BME280;18669;53.356;-1.464;2023-02-13T06:51:19;102331.28;;;7.83;100.00
29839;BME280;18669;53.356;-1.464;2023-02-13T06:53:45;102332.06;;;7.79;100.00
29839;BME280;18669;53.356;-1.464;2023-02-13T06:56:11;102331.19;;;7.78;100.00
29839;BME280;18669;53.356;-1.464;2023-02-13T06:58:37;102332.81;;;7.71;100.00
29839;BME280;18669;53.356;-1.464;2023-02-13T07:01:04;102328.41;;;7.70;100.00
29839;BME280;18669;53.356;-1.464;2023-02-13T07:03:31;102345.84;;;7.68;100.00
29839;BME280;18669;53.356;-1.464;2023-02-13T07:05:57;102342.34;;;7.68;100.00
29839;BME280;18669;53.356;-1.464;2023-02-13T07:08:23;102338.97;;;7.73;100.00
29839;BME280;18669;53.356;-1.464;2023-02-13T07:10:49;102341.59;;;7.73;100.00
29839;BME280;18669;53.356;-1.464;2023-02-13T07:13:14;102347.75;;;7.77;100.00
29839;BME280;18669;53.356;-1.464;2023-02-13T07:15:40;102339.81;;;7.72;100.00
29839;BME280;18669;53.356;-1.464;2023-02-13T07:18:07;102343.28;;;7.71;100.00
29839;BME280;18669;53.356;-1.464;2023-02-13T07:20:33;102338.00;;;7.68;100.00
29839;BME280;18669;53.356;-1.464;2023-02-13T07:22:59;102342.88;;;7.96;100.00
29839;BME280;18669;53.356;-1.464;2023-02-13T07:25:26;102336.53;;;7.84;100.00
29839;BME280;18669;53.356;-1.464;2023-02-13T07:27:53;102335.47;;;7.73;100.00
29839;BME280;18669;53.356;-1.464;2023-02-13T07:30:19;102328.41;;;7.70;100.00
29839;BME280;18669;53.356;-1.464;2023-02-13T07:32:45;102335.28;;;7.64;100.00
29839;BME280;18669;53.356;-1.464;2023-02-13T07:35:11;102328.31;;;7.64;100.00
29839;BME280;18669;53.356;-1.464;2023-02-13T07:37:37;102326.56;;;7.65;100.00
29839;BME280;18669;53.356;-1.464;2023-02-13T07:40:03;102323.91;;;7.63;100.00
29839;BME280;18669;53.356;-1.464;2023-02-13T07:42:33;102332.78;;;7.70;100.00
29839;BME280;18669;53.356;-1.464;2023-02-13T07:45:02;102317.81;;;7.63;100.00
29839;BME280;18669;53.356;-1.464;2023-02-13T07:47:30;102330.00;;;7.60;100.00
29839;BME280;18669;53.356;-1.464;2023-02-13T07:49:56;102337.00;;;7.63;100.00
29839;BME280;18669;53.356;-1.464;2023-02-13T07:52:22;102323.00;;;7.59;100.00
29839;BME280;18669;53.356;-1.464;2023-02-13T07:54:48;102329.88;;;7.54;100.00
29839;BME280;18669;53.356;-1.464;2023-02-13T07:57:15;102335.22;;;7.60;100.00
29839;BME280;18669;53.356;-1.464;2023-02-13T07:59:41;102325.63;;;7.61;100.00
29839;BME280;18669;53.356;-1.464;2023-02-13T08:02:14;102329.31;;;7.71;100.00
29839;BME280;18669;53.356;-1.464;2023-02-13T08:04:41;102337.06;;;7.65;100.00
29839;BME280;18669;53.356;-1.464;2023-02-13T08:07:11;102324.88;;;7.67;100.00
29839;BME280;18669;53.356;-1.464;2023-02-13T08:09:37;102332.81;;;7.71;100.00
29839;BME280;18669;53.356;-1.464;2023-02-13T08:12:21;102324.03;;;7.68;100.00
29839;BME280;18669;53.356;-1.464;2023-02-13T08:14:47;102330.28;;;7.76;100.00
29839;BME280;18669;53.356;-1.464;2023-02-13T08:17:13;102315.44;;;7.75;100.00
29839;BME280;18669;53.356;-1.464;2023-02-13T08:19:39;102319.63;;;7.67;100.00
29839;BME280;18669;53.356;-1.464;2023-02-13T08:22:05;102306.59;;;7.71;100.00
29839;BME280;18669;53.356;-1.464;2023-02-13T08:24:31;102305.81;;;7.74;100.00
29839;BME280;18669;53.356;-1.464;2023-02-13T08:26:57;102316.41;;;7.82;100.00
29839;BME280;18669;53.356;-1.464;2023-02-13T08:29:23;102316.22;;;7.71;100.00
29839;BME280;18669;53.356;-1.464;2023-02-13T08:31:49;102315.47;;;7.78;100.00
29839;BME280;18669;53.356;-1.464;2023-02-13T08:34:15;102316.38;;;7.80;100.00
29839;BME280;18669;53.356;-1.464;2023-02-13T08:36:41;102318.91;;;7.74;100.00
29839;BME280;18669;53.356;-1.464;2023-02-13T08:39:08;102315.31;;;7.70;100.00
29839;BME280;18669;53.356;-1.464;2023-02-13T08:41:35;102316.16;;;7.68;100.00
29839;BME280;18669;53.356;-1.464;2023-02-13T08:44:01;102324.16;;;7.77;100.00
29839;BME280;18669;53.356;-1.464;2023-02-13T08:46:27;102322.25;;;7.67;100.00
29839;BME280;18669;53.356;-1.464;2023-02-13T08:48:53;102323.16;;;7.69;100.00
29839;BME280;18669;53.356;-1.464;2023-02-13T08:51:19;102320.56;;;7.70;100.00
29839;BME280;18669;53.356;-1.464;2023-02-13T08:53:45;102315.38;;;7.72;100.00
29839;BME280;18669;53.356;-1.464;2023-02-13T08:56:11;102318.72;;;7.66;100.00
29839;BME280;18669;53.356;-1.464;2023-02-13T08:58:37;102333.66;;;7.69;100.00
29839;BME280;18669;53.356;-1.464;2023-02-13T09:01:04;102337.94;;;7.65;100.00
29839;BME280;18669;53.356;-1.464;2023-02-13T09:03:31;102348.38;;;7.64;100.00
29839;BME280;18669;53.356;-1.464;2023-02-13T09:06:01;102349.44;;;7.73;100.00
29839;BME280;18669;53.356;-1.464;2023-02-13T09:08:27;102346.56;;;7.61;100.00
29839;BME280;18669;53.356;-1.464;2023-02-13T09:11:02;102348.44;;;7.67;100.00
29839;BME280;18669;53.356;-1.464;2023-02-13T09:13:31;102355.53;;;7.72;100.00
29839;BME280;18669;53.356;-1.464;2023-02-13T09:16:06;102350.28;;;7.72;100.00
29839;BME280;18669;53.356;-1.464;2023-02-13T09:18:32;102341.63;;;7.76;100.00
29839;BME280;18669;53.356;-1.464;2023-02-13T09:21:03;102341.84;;;7.87;100.00
29839;BME280;18669;53.356;-1.464;2023-02-13T09:23:34;102331.28;;;7.83;100.00
29839;BME280;18669;53.356;-1.464;2023-02-13T09:26:01;102334.81;;;7.85;100.00
29839;BME280;18669;53.356;-1.464;2023-02-13T09:28:28;102328.63;;;7.81;100.00
29839;BME280;18669;53.356;-1.464;2023-02-13T09:30:54;102329.53;;;7.83;100.00
29839;BME280;18669;53.356;-1.464;2023-02-13T09:33:20;102331.22;;;7.81;100.00
29839;BME280;18669;53.356;-1.464;2023-02-13T09:35:46;102335.06;;;7.99;100.00
29839;BME280;18669;53.356;-1.464;2023-02-13T09:38:12;102330.44;;;7.85;100.00
29839;BME280;18669;53.356;-1.464;2023-02-13T09:40:50;102328.97;;;8.01;100.00
29839;BME280;18669;53.356;-1.464;2023-02-13T09:43:35;102319.25;;;7.94;100.00
29839;BME280;18669;53.356;-1.464;2023-02-13T09:46:18;102329.03;;;8.04;100.00
29839;BME280;18669;53.356;-1.464;2023-02-13T09:48:49;102327.16;;;7.97;100.00
29839;BME280;18669;53.356;-1.464;2023-02-13T09:51:18;102331.72;;;8.07;100.00
29839;BME280;18669;53.356;-1.464;2023-02-13T09:53:56;102337.13;;;8.17;100.00
29839;BME280;18669;53.356;-1.464;2023-02-13T10:01:54;102331.09;;;8.23;100.00
29839;BME280;18669;53.356;-1.464;2023-02-13T10:04:39;102338.94;;;8.23;100.00
29839;BME280;18669;53.356;-1.464;2023-02-13T10:18:21;102326.34;;;8.01;100.00
29839;BME280;18669;53.356;-1.464;2023-02-13T10:20:59;102331.75;;;8.09;100.00
29839;BME280;18669;53.356;-1.464;2023-02-13T10:23:35;102329.25;;;8.18;100.00
29839;BME280;18669;53.356;-1.464;2023-02-13T10:26:11;102334.56;;;8.20;100.00
29839;BME280;18669;53.356;-1.464;2023-02-13T10:28:44;102335.41;;;8.20;100.00
29839;BME280;18669;53.356;-1.464;2023-02-13T10:31:33;102340.59;;;8.16;100.00
29839;BME280;18669;53.356;-1.464;2023-02-13T10:34:01;102349.53;;;8.27;100.00
29839;BME280;18669;53.356;-1.464;2023-02-13T10:36:33;102353.94;;;8.30;100.00
29839;BME280;18669;53.356;-1.464;2023-02-13T10:39:04;102351.19;;;8.22;100.00
29839;BME280;18669;53.356;-1.464;2023-02-13T10:50:25;102342.00;;;8.47;100.00
29839;BME280;18669;53.356;-1.464;2023-02-13T11:01:55;102328.22;;;8.59;100.00
29839;BME280;18669;53.356;-1.464;2023-02-13T11:04:21;102316.63;;;8.48;100.00
29839;BME280;18669;53.356;-1.464;2023-02-13T11:07:02;102322.97;;;8.59;100.00
29839;BME280;18669;53.356;-1.464;2023-02-13T11:09:33;102326.50;;;8.61;100.00
29839;BME280;18669;53.356;-1.464;2023-02-13T11:12:29;102325.84;;;8.76;100.00
29839;BME280;18669;53.356;-1.464;2023-02-13T11:15:00;102322.31;;;8.74;100.00
29839;BME280;18669;53.356;-1.464;2023-02-13T11:17:29;102316.25;;;8.80;100.00
29839;BME280;18669;53.356;-1.464;2023-02-13T11:19:59;102322.31;;;8.74;100.00
29839;BME280;18669;53.356;-1.464;2023-02-13T11:22:37;102316.34;;;8.88;100.00
29839;BME280;18669;53.356;-1.464;2023-02-13T11:25:20;102312.09;;;8.94;100.00
29839;BME280;18669;53.356;-1.464;2023-02-13T11:27:49;102308.66;;;9.02;100.00
29839;BME280;18669;53.356;-1.464;2023-02-13T11:33:03;102303.66;;;9.20;100.00
29839;BME280;18669;53.356;-1.464;2023-02-13T11:35:33;102291.38;;;9.19;100.00
29839;BME280;18669;53.356;-1.464;2023-02-13T11:40:41;102284.94;;;8.92;100.00
29839;BME280;18669;53.356;-1.464;2023-02-13T11:43:28;102286.91;;;9.10;100.00
29839;BME280;18669;53.356;-1.464;2023-02-13T11:46:06;102288.84;;;9.27;100.00
29839;BME280;18669;53.356;-1.464;2023-02-13T11:48:34;102277.50;;;9.30;100.00
29839;BME280;18669;53.356;-1.464;2023-02-13T11:51:02;102273.41;;;9.58;100.00
29839;BME280;18669;53.356;-1.464;2023-02-13T11:53:30;102280.72;;;9.89;100.00
29839;BME280;18669;53.356;-1.464;2023-02-13T11:56:12;102278.91;;;9.83;100.00
29839;BME280;18669;53.356;-1.464;2023-02-13T11:58:38;102271.09;;;9.92;100.00
29839;BME280;18669;53.356;-1.464;2023-02-13T12:03:36;102264.00;;;11.26;94.54
29839;BME280;18669;53.356;-1.464;2023-02-13T12:08:37;102268.50;;;11.89;78.67
29839;BME280;18669;53.356;-1.464;2023-02-13T12:11:16;102254.47;;;12.16;76.87
29839;BME280;18669;53.356;-1.464;2023-02-13T12:13:46;102250.50;;;13.34;69.87
29839;BME280;18669;53.356;-1.464;2023-02-13T12:18:49;102249.97;;;14.10;64.44
29839;BME280;18669;53.356;-1.464;2023-02-13T12:21:31;102245.56;;;15.56;58.43
29839;BME280;18669;53.356;-1.464;2023-02-13T12:24:19;102239.63;;;16.89;53.18
29839;BME280;18669;53.356;-1.464;2023-02-13T12:27:18;102232.13;;;17.09;49.73
29839;BME280;18669;53.356;-1.464;2023-02-13T12:32:20;102224.63;;;16.42;50.44
29839;BME280;18669;53.356;-1.464;2023-02-13T12:48:34;102210.19;;;20.86;40.31
29839;BME280;18669;53.356;-1.464;2023-02-13T12:57:08;102201.06;;;21.14;39.53
29839;BME280;18669;53.356;-1.464;2023-02-13T13:10:40;102202.53;;;17.96;44.16
29839;BME280;18669;53.356;-1.464;2023-02-13T13:24:47;102187.94;;;18.74;43.51
29839;BME280;18669;53.356;-1.464;2023-02-13T13:27:23;102176.47;;;18.72;43.76
29839;BME280;18669;53.356;-1.464;2023-02-13T13:30:03;102175.00;;;19.20;43.10
29839;BME280;18669;53.356;-1.464;2023-02-13T13:32:31;102179.94;;;17.78;44.13
29839;BME280;18669;53.356;-1.464;2023-02-13T13:34:58;102184.72;;;16.44;46.78
29839;BME280;18669;53.356;-1.464;2023-02-13T13:37:32;102185.44;;;16.08;48.12
29839;BME280;18669;53.356;-1.464;2023-02-13T13:43:11;102176.69;;;14.90;51.21
29839;BME280;18669;53.356;-1.464;2023-02-13T13:51:47;102162.91;;;13.80;57.10
29839;BME280;18669;53.356;-1.464;2023-02-13T14:07:35;102153.53;;;13.43;58.04
29839;BME280;18669;53.356;-1.464;2023-02-13T14:10:03;102159.91;;;13.15;58.50
29839;BME280;18669;53.356;-1.464;2023-02-13T14:14:55;102147.78;;;12.76;60.81
29839;BME280;18669;53.356;-1.464;2023-02-13T14:22:47;102145.38;;;12.22;64.32
29839;BME280;18669;53.356;-1.464;2023-02-13T14:25:26;102145.34;;;12.23;64.58
29839;BME280;18669;53.356;-1.464;2023-02-13T14:27:55;102139.25;;;12.07;66.20
29839;BME280;18669;53.356;-1.464;2023-02-13T14:30:29;102141.03;;;12.07;67.55
29839;BME280;18669;53.356;-1.464;2023-02-13T14:32:56;102135.75;;;11.71;68.44
29839;BME280;18669;53.356;-1.464;2023-02-13T14:35:27;102135.75;;;11.77;70.97
29839;BME280;18669;53.356;-1.464;2023-02-13T14:37:59;102136.66;;;11.59;71.21
29839;BME280;18669;53.356;-1.464;2023-02-13T14:40:44;102144.56;;;11.55;72.23
29839;BME280;18669;53.356;-1.464;2023-02-13T14:45:55;102131.41;;;11.47;74.39
29839;BME280;18669;53.356;-1.464;2023-02-13T14:48:36;102137.53;;;11.44;74.38
29839;BME280;18669;53.356;-1.464;2023-02-13T14:51:05;102141.94;;;11.45;75.00
29839;BME280;18669;53.356;-1.464;2023-02-13T14:53:45;102135.78;;;11.37;76.65
29839;BME280;18669;53.356;-1.464;2023-02-13T14:56:14;102138.41;;;11.40;77.14
29839;BME280;18669;53.356;-1.464;2023-02-13T14:59:00;102135.78;;;11.43;78.76
29839;BME280;18669;53.356;-1.464;2023-02-13T15:01:34;102141.06;;;11.46;78.59
29839;BME280;18669;53.356;-1.464;2023-02-13T15:04:33;102137.56;;;11.46;77.23
29839;BME280;18669;53.356;-1.464;2023-02-13T15:07:04;102134.03;;;11.44;76.93
29839;BME280;18669;53.356;-1.464;2023-02-13T15:09:35;102141.06;;;11.42;75.82
29839;BME280;18669;53.356;-1.464;2023-02-13T15:12:22;102129.59;;;11.97;74.22
29839;BME280;18669;53.356;-1.464;2023-02-13T15:14:48;102136.59;;;12.11;70.74
29839;BME280;18669;53.356;-1.464;2023-02-13T15:17:18;102134.00;;;11.81;71.73
29839;BME280;18669;53.356;-1.464;2023-02-13T15:19:48;102119.94;;;11.82;73.30
29839;BME280;18669;53.356;-1.464;2023-02-13T15:22:35;102134.91;;;11.80;73.92
29839;BME280;18669;53.356;-1.464;2023-02-13T15:25:05;102131.38;;;11.62;72.91
29839;BME280;18669;53.356;-1.464;2023-02-13T15:27:40;102122.59;;;11.46;72.66
29839;BME280;18669;53.356;-1.464;2023-02-13T15:30:21;102132.28;;;11.46;73.83
29839;BME280;18669;53.356;-1.464;2023-02-13T15:33:00;102132.28;;;11.40;75.43
29839;BME280;18669;53.356;-1.464;2023-02-13T15:35:32;102132.25;;;11.38;76.05
29839;BME280;18669;53.356;-1.464;2023-02-13T15:37:59;102122.63;;;11.25;76.72
29839;BME280;18669;53.356;-1.464;2023-02-13T15:40:43;102117.34;;;11.11;77.74
29839;BME280;18669;53.356;-1.464;2023-02-13T15:43:21;102117.31;;;11.06;80.01
29839;BME280;18669;53.356;-1.464;2023-02-13T15:45:49;102112.91;;;10.89;81.65
29839;BME280;18669;53.356;-1.464;2023-02-13T15:48:16;102123.44;;;10.88;82.77